createdAt,value
2023-03-26T00:00:04.086Z,97062.50
2023-03-26T00:02:32.665Z,97061.50
2023-03-26T00:05:01.008Z,97059.72
2023-03-26T00:07:32.596Z,97058.06
2023-03-26T00:10:00.875Z,97066.00
2023-03-26T00:12:29.144Z,97071.13
2023-03-26T00:14:58.758Z,97070.16
2023-03-26T00:17:27.082Z,97058.72
2023-03-26T00:19:57.122Z,97057.06
2023-03-26T00:22:34.335Z,97061.69
2023-03-26T00:25:02.616Z,97059.88
2023-03-26T00:27:30.903Z,97061.84
2023-03-26T00:30:00.880Z,97056.53
2023-03-26T00:32:35.538Z,97064.78
2023-03-26T00:35:06.459Z,97064.78
2023-03-26T00:37:34.778Z,97054.19
2023-03-26T00:40:06.941Z,97055.88
2023-03-26T00:42:35.784Z,97055.34
2023-03-26T00:45:06.202Z,97058.84
2023-03-26T00:47:36.071Z,97056.50
2023-03-26T00:50:15.384Z,97063.59
2023-03-26T00:52:45.071Z,97069.75
2023-03-26T00:55:16.612Z,97063.75
2023-03-26T00:57:46.080Z,97054.19
2023-03-26T01:00:20.897Z,97055.97
2023-03-26T01:02:49.537Z,97059.63
2023-03-26T01:05:49.217Z,97064.06
2023-03-26T01:08:29.153Z,97057.13
2023-03-26T01:11:05.169Z,97057.13
2023-03-26T01:13:38.461Z,97049.19
2023-03-26T01:16:20.298Z,97053.50
2023-03-26T01:18:49.950Z,97054.34
2023-03-26T01:21:28.714Z,97062.13
2023-03-26T01:24:02.595Z,97058.47
2023-03-26T01:26:56.280Z,97050.69
2023-03-26T01:29:34.847Z,97052.88
2023-03-26T01:32:16.449Z,97053.72
2023-03-26T01:35:07.334Z,97047.41
2023-03-26T01:37:46.811Z,97052.56
2023-03-26T01:40:26.456Z,97054.88
2023-03-26T01:43:01.621Z,97052.25
2023-03-26T01:45:35.444Z,97056.22
2023-03-26T01:48:03.998Z,97045.31
2023-03-26T01:50:32.378Z,97050.44
2023-03-26T01:53:00.845Z,97055.44
2023-03-26T01:55:37.358Z,97046.84
2023-03-26T01:58:15.079Z,97046.00
2023-03-26T02:00:54.213Z,97048.50
2023-03-26T02:03:30.370Z,97045.69
2023-03-26T02:06:07.494Z,97048.19
2023-03-26T02:08:41.378Z,97048.03
2023-03-26T02:11:19.987Z,97047.88
2023-03-26T02:13:48.786Z,97046.69
2023-03-26T02:16:18.870Z,97047.53
2023-03-26T02:18:51.389Z,97027.03
2023-03-26T02:21:22.323Z,97021.75
2023-03-26T02:23:57.730Z,97019.09
2023-03-26T02:26:29.724Z,97010.16
2023-03-26T02:28:58.443Z,97019.09
2023-03-26T02:31:27.262Z,97005.03
2023-03-26T02:33:56.678Z,97011.97
2023-03-26T02:36:27.277Z,97013.81
2023-03-26T02:38:57.933Z,97013.81
2023-03-26T02:41:31.881Z,97011.16
2023-03-26T02:44:00.326Z,97007.66
2023-03-26T02:46:31.636Z,96998.88
2023-03-26T02:49:00.193Z,97006.03
2023-03-26T02:51:34.983Z,96999.03
2023-03-26T02:54:03.674Z,96998.06
2023-03-26T02:56:33.317Z,96995.44
2023-03-26T02:59:01.617Z,97006.03
2023-03-26T03:01:33.738Z,96989.28
2023-03-26T03:04:04.179Z,97002.53
2023-03-26T03:06:32.562Z,96992.09
2023-03-26T03:09:02.710Z,96987.81
2023-03-26T03:11:32.591Z,96987.97
2023-03-26T03:14:00.867Z,96983.63
2023-03-26T03:16:29.635Z,96982.97
2023-03-26T03:19:00.942Z,96982.47
2023-03-26T03:21:30.860Z,96981.78
2023-03-26T03:24:00.585Z,96972.34
2023-03-26T03:26:29.955Z,96968.22
2023-03-26T03:29:00.027Z,96976.63
2023-03-26T03:31:31.066Z,96968.47
2023-03-26T03:33:59.428Z,96977.56
2023-03-26T03:36:30.477Z,96977.91
2023-03-26T03:39:02.411Z,96969.13
2023-03-26T03:41:33.580Z,96962.16
2023-03-26T03:44:03.251Z,96966.13
2023-03-26T03:46:31.638Z,96977.69
2023-03-26T03:48:59.988Z,96968.94
2023-03-26T03:51:28.252Z,96968.94
2023-03-26T03:53:56.883Z,96963.66
2023-03-26T03:56:26.242Z,96965.28
2023-03-26T03:58:54.600Z,96964.44
2023-03-26T04:01:29.940Z,96962.81
2023-03-26T04:03:58.312Z,96968.09
2023-03-26T04:06:30.248Z,96951.69
2023-03-26T04:08:58.828Z,96940.31
2023-03-26T04:11:29.540Z,96945.06
2023-03-26T04:13:57.814Z,96939.25
2023-03-26T04:16:27.587Z,96941.41
2023-03-26T04:18:57.336Z,96932.78
2023-03-26T04:21:26.312Z,96937.41
2023-03-26T04:23:54.698Z,96936.91
2023-03-26T04:26:23.008Z,96938.03
2023-03-26T04:28:56.886Z,96940.97
2023-03-26T04:31:29.315Z,96938.50
2023-03-26T04:34:05.620Z,96936.00
2023-03-26T04:36:35.566Z,96932.53
2023-03-26T04:39:06.724Z,96935.50
2023-03-26T04:41:37.483Z,96942.91
2023-03-26T04:44:06.952Z,96947.38
2023-03-26T04:46:36.724Z,96953.66
2023-03-26T04:49:05.053Z,96951.84
2023-03-26T04:51:41.921Z,96932.66
2023-03-26T04:54:12.718Z,96939.41
2023-03-26T04:56:46.695Z,96946.94
2023-03-26T04:59:18.934Z,96943.28
2023-03-26T05:01:53.658Z,96947.72
2023-03-26T05:04:22.084Z,96943.13
2023-03-26T05:06:50.681Z,96945.63
2023-03-26T05:09:18.977Z,96949.91
2023-03-26T05:11:48.296Z,96945.47
2023-03-26T05:14:16.634Z,96943.66
2023-03-26T05:16:50.415Z,96940.69
2023-03-26T05:19:18.754Z,96936.06
2023-03-26T05:21:47.114Z,96927.16
2023-03-26T05:24:15.483Z,96919.09
2023-03-26T05:26:43.877Z,96917.25
2023-03-26T05:29:22.389Z,96923.22
2023-03-26T05:31:52.039Z,96922.38
2023-03-26T05:34:24.152Z,96928.34
2023-03-26T05:36:52.480Z,96923.59
2023-03-26T05:39:25.597Z,96920.09
2023-03-26T05:41:54.002Z,96917.09
2023-03-26T05:44:22.304Z,96916.78
2023-03-26T05:46:52.272Z,96914.28
2023-03-26T05:49:20.522Z,96903.06
2023-03-26T05:51:48.799Z,96905.19
2023-03-26T05:54:20.002Z,96910.47
2023-03-26T05:56:48.337Z,96902.69
2023-03-26T05:59:16.755Z,96891.13
2023-03-26T06:01:45.125Z,96886.81
2023-03-26T06:04:16.104Z,96876.78
2023-03-26T06:06:45.263Z,96877.59
2023-03-26T06:09:14.773Z,96874.63
2023-03-26T06:11:43.147Z,96866.38
2023-03-26T06:14:11.434Z,96860.78
2023-03-26T06:16:42.667Z,96864.09
2023-03-26T06:19:11.019Z,96860.47
2023-03-26T06:21:40.729Z,96852.06
2023-03-26T06:24:09.368Z,96855.06
2023-03-26T06:26:40.280Z,96851.94
2023-03-26T06:29:08.573Z,96850.09
2023-03-26T06:31:39.256Z,96847.50
2023-03-26T06:34:07.670Z,96847.84
2023-03-26T06:36:36.991Z,96846.69
2023-03-26T06:39:07.656Z,96843.41
2023-03-26T06:41:39.626Z,96839.44
2023-03-26T06:44:07.956Z,96833.00
2023-03-26T06:46:39.405Z,96830.38
2023-03-26T06:49:09.362Z,96827.22
2023-03-26T06:51:48.796Z,96828.03
2023-03-26T06:54:24.302Z,96818.28
2023-03-26T06:56:52.635Z,96810.84
2023-03-26T06:59:21.228Z,96811.69
2023-03-26T07:01:49.506Z,96803.41
2023-03-26T07:04:17.872Z,96804.09
2023-03-26T07:06:49.134Z,96802.09
2023-03-26T07:09:19.346Z,96799.94
2023-03-26T07:11:47.672Z,96791.53
2023-03-26T07:14:16.085Z,96783.25
2023-03-26T07:16:44.430Z,96784.41
2023-03-26T07:19:12.729Z,96788.56
2023-03-26T07:21:44.630Z,96783.56
2023-03-26T07:24:16.487Z,96778.97
2023-03-26T07:27:02.236Z,96777.47
2023-03-26T07:29:38.680Z,96771.22
2023-03-26T07:32:19.199Z,96768.19
2023-03-26T07:35:02.614Z,96762.56
2023-03-26T07:37:45.208Z,96765.56
2023-03-26T07:40:30.638Z,96750.16
2023-03-26T07:43:08.455Z,96754.81
2023-03-26T07:45:41.285Z,96755.59
2023-03-26T07:48:17.522Z,96754.75
2023-03-26T07:50:46.900Z,96746.13
2023-03-26T07:53:15.966Z,96744.28
2023-03-26T07:55:54.594Z,96738.81
2023-03-26T07:58:42.115Z,96737.97
2023-03-26T08:01:18.770Z,96727.84
2023-03-26T08:04:24.823Z,96727.50
2023-03-26T08:07:01.148Z,96728.16
2023-03-26T08:09:37.888Z,96728.47
2023-03-26T08:12:19.575Z,96713.84
2023-03-26T08:15:00.599Z,96710.53
2023-03-26T08:17:38.042Z,96703.22
2023-03-26T08:20:19.195Z,96694.09
2023-03-26T08:22:55.274Z,96693.75
2023-03-26T08:25:33.245Z,96688.75
2023-03-26T08:28:11.976Z,96681.59
2023-03-26T08:30:41.994Z,96676.25
2023-03-26T08:33:16.828Z,96669.94
2023-03-26T08:35:49.592Z,96663.13
2023-03-26T08:38:20.542Z,96676.22
2023-03-26T08:41:51.720Z,96663.75
2023-03-26T08:45:07.663Z,96652.00
2023-03-26T08:48:33.324Z,96659.28
2023-03-26T08:51:52.573Z,96648.00
2023-03-26T08:55:16.652Z,96642.19
2023-03-26T08:58:42.531Z,96640.72
2023-03-26T09:01:42.944Z,96639.22
2023-03-26T09:04:39.576Z,96618.47
2023-03-26T09:08:01.194Z,96613.81
2023-03-26T09:10:59.195Z,96594.59
2023-03-26T09:14:20.941Z,96570.63
2023-03-26T09:17:46.068Z,96573.75
2023-03-26T09:21:25.557Z,96588.88
2023-03-26T09:24:45.292Z,96596.47
2023-03-26T09:27:38.194Z,96594.25
2023-03-26T09:30:53.372Z,96582.44
2023-03-26T09:33:56.366Z,96571.66
2023-03-26T09:36:42.804Z,96568.81
2023-03-26T09:39:31.320Z,96562.78
2023-03-26T09:42:19.262Z,96544.84
2023-03-26T09:45:38.257Z,96546.13
2023-03-26T09:48:54.039Z,96553.91
2023-03-26T09:51:53.551Z,96552.75
2023-03-26T09:55:01.102Z,96545.22
2023-03-26T09:57:58.377Z,96542.22
2023-03-26T10:00:33.684Z,96543.50
2023-03-26T10:03:28.119Z,96539.47
2023-03-26T10:06:34.597Z,96548.09
2023-03-26T10:09:17.997Z,96546.44
2023-03-26T10:12:24.939Z,96540.94
2023-03-26T10:15:06.986Z,96529.94
2023-03-26T10:17:49.584Z,96522.81
2023-03-26T10:20:35.406Z,96522.63
2023-03-26T10:23:38.805Z,96518.97
2023-03-26T10:26:41.801Z,96528.59
2023-03-26T10:30:17.989Z,96537.19
2023-03-26T10:32:58.212Z,96540.03
2023-03-26T10:35:49.385Z,96540.84
2023-03-26T10:38:31.135Z,96539.22
2023-03-26T10:41:12.755Z,96534.91
2023-03-26T10:44:19.643Z,96532.06
2023-03-26T10:47:12.749Z,96529.41
2023-03-26T10:50:04.623Z,96525.09
2023-03-26T10:52:39.251Z,96526.75
2023-03-26T10:55:16.377Z,96518.41
2023-03-26T10:57:50.439Z,96514.94
2023-03-26T11:00:25.279Z,96524.75
2023-03-26T11:03:27.307Z,96525.09
2023-03-26T11:06:08.068Z,96521.16
2023-03-26T11:08:41.931Z,96522.16
2023-03-26T11:11:22.004Z,96523.00
2023-03-26T11:14:01.615Z,96498.44
2023-03-26T11:16:45.067Z,96500.09
2023-03-26T11:19:23.238Z,96502.94
2023-03-26T11:22:01.001Z,96511.53
2023-03-26T11:25:06.625Z,96506.78
2023-03-26T11:27:52.301Z,96496.81
2023-03-26T11:30:31.323Z,96481.88
2023-03-26T11:33:04.568Z,96473.72
2023-03-26T11:35:41.116Z,96479.69
2023-03-26T11:38:20.372Z,96461.75
2023-03-26T11:40:54.411Z,96457.41
2023-03-26T11:43:29.283Z,96463.38
2023-03-26T11:45:58.494Z,96471.16
2023-03-26T11:48:34.150Z,96467.69
2023-03-26T11:51:08.545Z,96466.31
2023-03-26T11:53:39.645Z,96481.06
2023-03-26T11:56:16.129Z,96485.34
2023-03-26T11:58:55.404Z,96480.50
2023-03-26T12:01:30.431Z,96475.84
2023-03-26T12:04:06.991Z,96483.44
2023-03-26T12:06:35.364Z,96475.91
2023-03-26T12:09:04.869Z,96480.00
2023-03-26T12:11:35.853Z,96476.81
2023-03-26T12:14:06.771Z,96481.56
2023-03-26T12:16:36.344Z,96465.91
2023-03-26T12:19:08.218Z,96453.69
2023-03-26T12:21:46.951Z,96454.78
2023-03-26T12:24:30.643Z,96436.44
2023-03-26T12:27:02.281Z,96442.22
2023-03-26T12:29:34.570Z,96448.78
2023-03-26T12:32:11.108Z,96448.16
2023-03-26T12:34:40.971Z,96444.59
2023-03-26T12:37:37.496Z,96430.88
2023-03-26T12:40:28.490Z,96429.66
2023-03-26T12:44:55.430Z,96429.47
2023-03-26T12:47:56.555Z,96419.41
2023-03-26T12:48:43.646Z,96419.59
2023-03-26T12:51:20.886Z,96414.00
2023-03-26T12:54:07.278Z,96415.28
2023-03-26T12:56:41.889Z,96399.94
2023-03-26T12:59:31.469Z,96391.09
2023-03-26T13:02:21.843Z,96391.03
2023-03-26T13:05:06.833Z,96380.50
2023-03-26T13:07:54.737Z,96372.88
2023-03-26T13:10:45.554Z,96356.19
2023-03-26T13:13:35.095Z,96348.91
2023-03-26T13:16:07.390Z,96344.06
2023-03-26T13:18:49.249Z,96344.06
2023-03-26T13:21:28.650Z,96338.03
2023-03-26T13:24:10.829Z,96341.50
2023-03-26T13:26:54.954Z,96350.50
2023-03-26T13:29:34.318Z,96341.66
2023-03-26T13:32:09.651Z,96344.63
2023-03-26T13:35:01.647Z,96337.34
2023-03-26T13:37:38.973Z,96341.94
2023-03-26T13:40:26.044Z,96344.47
2023-03-26T13:43:15.780Z,96346.75
2023-03-26T13:45:58.621Z,96344.13
2023-03-26T13:48:31.571Z,96347.22
2023-03-26T13:51:07.721Z,96333.16
2023-03-26T13:53:44.458Z,96320.50
2023-03-26T13:56:18.341Z,96309.47
2023-03-26T13:58:52.184Z,96317.69
2023-03-26T14:01:24.668Z,96313.63
2023-03-26T14:03:59.537Z,96314.03
2023-03-26T14:06:46.898Z,96301.38
2023-03-26T14:09:22.929Z,96288.50
2023-03-26T14:12:07.752Z,96291.41
2023-03-26T14:14:55.376Z,96270.75
2023-03-26T14:17:32.289Z,96279.97
2023-03-26T14:20:30.406Z,96279.78
2023-03-26T14:23:52.314Z,96278.56
2023-03-26T14:26:37.528Z,96283.69
2023-03-26T14:29:31.136Z,96288.63
2023-03-26T14:32:24.507Z,96290.28
2023-03-26T14:35:26.102Z,96287.81
2023-03-26T14:38:41.735Z,96285.56
2023-03-26T14:41:25.645Z,96289.69
2023-03-26T14:44:48.975Z,96274.13
2023-03-26T14:47:20.702Z,96268.00
2023-03-26T14:50:26.685Z,96270.28
2023-03-26T14:53:01.305Z,96258.41
2023-03-26T14:56:21.330Z,96276.59
2023-03-26T14:59:24.838Z,96270.66
2023-03-26T15:03:00.953Z,96263.69
2023-03-26T15:06:28.617Z,96262.63
2023-03-26T15:09:57.698Z,96261.19
2023-03-26T15:12:44.383Z,96258.09
2023-03-26T15:15:54.839Z,96260.56
2023-03-26T15:19:10.744Z,96259.72
2023-03-26T15:22:26.039Z,96251.75
2023-03-26T15:25:49.075Z,96254.78
2023-03-26T15:29:14.770Z,96263.16
2023-03-26T15:32:33.144Z,96257.78
2023-03-26T15:35:57.520Z,96264.72
2023-03-26T15:39:01.257Z,96260.19
2023-03-26T15:41:36.206Z,96266.09
2023-03-26T15:44:53.291Z,96259.72
2023-03-26T15:48:37.511Z,96250.84
2023-03-26T15:51:46.987Z,96264.84
2023-03-26T15:54:27.955Z,96258.63
2023-03-26T15:57:16.657Z,96259.78
2023-03-26T16:00:22.844Z,96255.22
2023-03-26T16:03:17.874Z,96250.50
2023-03-26T16:06:19.032Z,96257.31
2023-03-26T16:08:57.673Z,96250.75
2023-03-26T16:11:47.200Z,96251.53
2023-03-26T16:14:23.969Z,96258.47
2023-03-26T16:16:57.875Z,96257.22
2023-03-26T16:20:17.233Z,96250.19
2023-03-26T16:22:57.902Z,96253.03
2023-03-26T16:25:30.995Z,96263.47
2023-03-26T16:28:33.921Z,96261.66
2023-03-26T16:31:37.890Z,96259.78
2023-03-26T16:34:30.143Z,96253.31
2023-03-26T16:37:01.120Z,96257.03
2023-03-26T16:39:44.297Z,96259.31
2023-03-26T16:42:37.670Z,96252.13
2023-03-26T16:45:22.674Z,96242.59
2023-03-26T16:48:01.618Z,96246.69
2023-03-26T16:50:45.205Z,96251.00
2023-03-26T16:53:29.926Z,96250.81
2023-03-26T16:56:02.665Z,96241.00
2023-03-26T16:58:38.259Z,96238.16
2023-03-26T17:01:10.959Z,96245.09
2023-03-26T17:03:54.162Z,96242.63
2023-03-26T17:07:01.717Z,96248.13
2023-03-26T17:09:41.492Z,96244.44
2023-03-26T17:12:20.119Z,96247.28
2023-03-26T17:15:12.806Z,96241.97
2023-03-26T17:18:22.722Z,96239.69
2023-03-26T17:21:01.109Z,96239.88
2023-03-26T17:24:03.970Z,96244.38
2023-03-26T17:26:46.732Z,96241.09
2023-03-26T17:29:27.295Z,96247.41
2023-03-26T17:32:04.682Z,96242.31
2023-03-26T17:34:56.810Z,96243.66
2023-03-26T17:37:48.524Z,96235.28
2023-03-26T17:40:52.153Z,96236.03
2023-03-26T17:43:45.682Z,96234.75
2023-03-26T17:46:37.549Z,96236.78
2023-03-26T17:49:14.805Z,96232.84
2023-03-26T17:51:52.606Z,96228.75
2023-03-26T17:54:25.815Z,96220.34
2023-03-26T17:56:57.614Z,96227.69
2023-03-26T17:59:35.069Z,96222.09
2023-03-26T18:02:07.000Z,96218.00
2023-03-26T18:04:39.257Z,96222.84
2023-03-26T18:07:46.304Z,96224.81
2023-03-26T18:10:33.423Z,96236.63
2023-03-26T18:13:35.553Z,96242.69
2023-03-26T18:16:14.328Z,96238.75
2023-03-26T18:18:50.814Z,96250.72
2023-03-26T18:21:25.692Z,96250.25
2023-03-26T18:23:54.356Z,96257.78
2023-03-26T18:26:37.455Z,96248.28
2023-03-26T18:29:22.043Z,96256.59
2023-03-26T18:31:55.414Z,96252.22
2023-03-26T18:34:25.999Z,96242.34
2023-03-26T18:37:14.769Z,96245.06
2023-03-26T18:40:00.154Z,96250.50
2023-03-26T18:42:30.433Z,96252.19
2023-03-26T18:45:09.797Z,96241.69
2023-03-26T18:47:38.582Z,96242.25
2023-03-26T18:50:10.873Z,96235.84
2023-03-26T18:52:39.221Z,96228.44
2023-03-26T18:55:08.182Z,96213.91
2023-03-26T18:57:36.521Z,96226.34
2023-03-26T19:00:21.063Z,96221.78
2023-03-26T19:03:00.864Z,96218.47
2023-03-26T19:05:29.529Z,96218.47
2023-03-26T19:07:58.198Z,96217.28
2023-03-26T19:10:27.468Z,96221.59
2023-03-26T19:12:57.566Z,96214.44
2023-03-26T19:15:29.575Z,96212.44
2023-03-26T19:18:06.994Z,96209.78
2023-03-26T19:20:42.054Z,96206.97
2023-03-26T19:23:16.049Z,96198.19
2023-03-26T19:25:48.643Z,96204.97
2023-03-26T19:28:22.408Z,96205.94
2023-03-26T19:30:57.930Z,96210.09
2023-03-26T19:33:36.460Z,96212.91
2023-03-26T19:36:16.109Z,96216.56
2023-03-26T19:38:51.058Z,96213.28
2023-03-26T19:41:24.191Z,96215.75
2023-03-26T19:43:55.922Z,96222.88
2023-03-26T19:46:26.742Z,96214.09
2023-03-26T19:48:57.683Z,96212.25
2023-03-26T19:51:34.051Z,96210.44
2023-03-26T19:54:06.207Z,96213.91
2023-03-26T19:56:37.565Z,96213.72
2023-03-26T19:59:06.251Z,96220.50
2023-03-26T20:01:36.486Z,96226.44
2023-03-26T20:04:10.072Z,96228.09
2023-03-26T20:06:43.805Z,96237.50
2023-03-26T20:09:13.738Z,96237.50
2023-03-26T20:11:42.217Z,96237.31
2023-03-26T20:14:16.462Z,96250.56
2023-03-26T20:16:46.394Z,96257.78
2023-03-26T20:22:05.588Z,96264.72
2023-03-26T20:24:35.350Z,96258.31
2023-03-26T20:27:03.635Z,96260.31
2023-03-26T20:29:31.946Z,96267.44
2023-03-26T20:32:03.727Z,96265.50
2023-03-26T20:34:32.077Z,96273.00
2023-03-26T20:37:01.122Z,96271.69
2023-03-26T20:39:30.225Z,96268.25
2023-03-26T20:41:58.550Z,96269.88
2023-03-26T20:44:28.061Z,96273.34
2023-03-26T20:46:58.912Z,96269.88
2023-03-26T20:49:29.328Z,96270.59
2023-03-26T20:51:57.719Z,96271.97
2023-03-26T20:54:27.913Z,96257.22
2023-03-26T20:56:59.213Z,96260.25
2023-03-26T20:59:28.895Z,96254.81
2023-03-26T21:02:02.155Z,96255.34
2023-03-26T21:04:32.185Z,96257.69
2023-03-26T21:07:07.325Z,96261.34
2023-03-26T21:09:44.849Z,96266.81
2023-03-26T21:12:24.768Z,96265.38
2023-03-26T21:14:55.877Z,96259.22
2023-03-26T21:17:25.537Z,96261.56
2023-03-26T21:19:56.038Z,96273.00
2023-03-26T21:22:36.627Z,96262.75
2023-03-26T21:25:18.253Z,96267.41
2023-03-26T21:28:02.453Z,96262.28
2023-03-26T21:30:32.822Z,96260.66
2023-03-26T21:33:01.920Z,96258.66
2023-03-26T21:35:34.667Z,96267.56
2023-03-26T21:38:05.827Z,96272.88
2023-03-26T21:40:42.269Z,96257.81
2023-03-26T21:43:13.717Z,96258.47
2023-03-26T21:45:43.050Z,96265.94
2023-03-26T21:48:12.698Z,96256.00
2023-03-26T21:50:43.357Z,96260.66
2023-03-26T21:53:15.373Z,96262.28
2023-03-26T21:55:59.437Z,96259.63
2023-03-26T21:58:43.121Z,96253.72
2023-03-26T22:01:27.290Z,96266.13
2023-03-26T22:04:09.111Z,96258.03
2023-03-26T22:06:45.109Z,96260.41
2023-03-26T22:09:18.423Z,96258.03
2023-03-26T22:11:48.926Z,96253.75
2023-03-26T22:14:17.606Z,96260.50
2023-03-26T22:16:45.926Z,96257.06
2023-03-26T22:19:14.327Z,96255.22
2023-03-26T22:21:43.974Z,96255.22
2023-03-26T22:24:12.319Z,96254.41
2023-03-26T22:26:40.744Z,96262.19
2023-03-26T22:29:09.695Z,96257.06
2023-03-26T22:31:39.863Z,96256.88
2023-03-26T22:34:08.844Z,96262.34
2023-03-26T22:36:39.760Z,96267.66
2023-03-26T22:39:10.113Z,96269.63
2023-03-26T22:41:44.129Z,96270.00
2023-03-26T22:44:19.819Z,96274.16
2023-03-26T22:46:51.389Z,96280.91
2023-03-26T22:49:22.919Z,96275.63
2023-03-26T22:51:51.528Z,96275.63
2023-03-26T22:54:21.225Z,96280.13
2023-03-26T22:56:49.647Z,96277.47
2023-03-26T22:59:17.927Z,96267.06
2023-03-26T23:01:46.572Z,96269.53
2023-03-26T23:04:31.302Z,96270.69
2023-03-26T23:07:01.044Z,96280.28
2023-03-26T23:09:30.716Z,96279.47
2023-03-26T23:11:59.036Z,96278.63
2023-03-26T23:14:28.596Z,96268.88
2023-03-26T23:16:57.214Z,96273.16
2023-03-26T23:19:25.855Z,96276.16
2023-03-26T23:21:54.221Z,96264.78
2023-03-26T23:24:22.533Z,96267.41
2023-03-26T23:26:52.233Z,96269.56
2023-03-26T23:29:20.621Z,96267.09
2023-03-26T23:31:49.080Z,96268.91
2023-03-26T23:34:18.555Z,96266.09
2023-03-26T23:36:50.003Z,96262.00
2023-03-26T23:39:18.849Z,96266.28
2023-03-26T23:41:47.246Z,96264.47
2023-03-26T23:44:17.066Z,96261.50
2023-03-26T23:46:45.360Z,96265.81
2023-03-26T23:49:13.753Z,96264.16
2023-03-26T23:51:42.152Z,96277.91
2023-03-26T23:54:11.637Z,96273.78
2023-03-26T23:56:40.023Z,96266.69
2023-03-26T23:59:08.417Z,96273.97
